createdAt,value
2022-08-06T00:00:39.113Z,75.17
2022-08-06T00:03:47.840Z,76.66
2022-08-06T00:06:50.799Z,79.61
2022-08-06T00:10:00.626Z,81.24
2022-08-06T00:13:05.299Z,79.78
2022-08-06T00:16:30.710Z,81.16
2022-08-06T00:19:29.985Z,79.44
2022-08-06T00:22:52.222Z,80.33
2022-08-06T00:25:55.331Z,82.81
2022-08-06T00:28:57.515Z,81.96
2022-08-06T00:31:59.875Z,80.41
2022-08-06T00:35:05.696Z,79.93
2022-08-06T00:38:10.631Z,79.19
2022-08-06T00:41:17.279Z,82.44
2022-08-06T00:44:30.359Z,80.58
2022-08-06T00:48:01.520Z,82.34
2022-08-06T00:50:55.893Z,81.10
2022-08-06T00:53:58.317Z,79.58
2022-08-06T00:57:00.656Z,79.88
2022-08-06T01:00:02.959Z,80.83
2022-08-06T01:03:41.670Z,81.06
2022-08-06T01:06:54.756Z,79.83
2022-08-06T01:09:59.556Z,78.73
2022-08-06T01:13:04.576Z,78.34
2022-08-06T01:16:32.384Z,78.47
2022-08-06T01:21:58.299Z,79.37
2022-08-06T01:23:23.230Z,79.56
2022-08-06T01:26:54.214Z,78.41
2022-08-06T01:30:04.775Z,78.61
2022-08-06T01:33:18.225Z,78.75
2022-08-06T01:36:55.436Z,79.20
2022-08-06T01:40:02.758Z,79.57
2022-08-06T01:43:13.324Z,80.13
2022-08-06T01:46:27.505Z,78.78
2022-08-06T01:50:01.223Z,78.61
2022-08-06T01:52:59.966Z,78.61
2022-08-06T01:56:08.930Z,78.96
2022-08-06T01:59:13.769Z,80.79
2022-08-06T02:02:21.478Z,79.83
2022-08-06T02:05:32.565Z,80.36
2022-08-06T02:08:39.171Z,81.09
2022-08-06T02:12:03.086Z,81.56
2022-08-06T02:15:11.479Z,82.48
2022-08-06T02:18:14.860Z,84.91
2022-08-06T02:21:32.740Z,83.77
2022-08-06T02:24:36.467Z,82.05
2022-08-06T02:27:53.554Z,82.26
2022-08-06T02:31:01.867Z,82.10
2022-08-06T02:34:14.114Z,81.28
2022-08-06T02:37:22.994Z,81.35
2022-08-06T02:40:47.877Z,82.88
2022-08-06T02:43:54.335Z,81.71
2022-08-06T02:47:17.156Z,80.86
2022-08-06T02:50:23.231Z,81.22
2022-08-06T02:53:37.354Z,81.18
2022-08-06T02:57:03.566Z,81.52
2022-08-06T03:00:08.752Z,81.85
2022-08-06T03:03:16.040Z,82.09
2022-08-06T03:06:26.805Z,81.88
2022-08-06T03:09:29.156Z,81.20
2022-08-06T03:12:36.901Z,82.24
2022-08-06T03:15:59.832Z,83.07
2022-08-06T03:19:54.877Z,86.32
2022-08-06T03:22:35.218Z,86.25
2022-08-06T03:25:42.559Z,89.09
2022-08-06T03:28:45.332Z,89.91
2022-08-06T03:31:58.257Z,88.04
2022-08-06T03:35:02.802Z,89.96
2022-08-06T03:38:09.380Z,90.23
2022-08-06T03:41:13.287Z,89.13
2022-08-06T03:44:20.755Z,90.42
2022-08-06T03:47:31.177Z,89.99
2022-08-06T03:50:49.704Z,88.99
2022-08-06T03:53:54.718Z,90.17
2022-08-06T03:57:08.398Z,89.97
2022-08-06T04:00:15.503Z,89.89
2022-08-06T04:03:18.962Z,90.59
2022-08-06T04:06:22.822Z,89.91
2022-08-06T04:09:40.619Z,90.09
2022-08-06T04:13:07.820Z,90.79
2022-08-06T04:16:33.464Z,89.83
2022-08-06T04:19:43.429Z,90.62
2022-08-06T04:23:06.118Z,90.29
2022-08-06T04:26:14.678Z,90.47
2022-08-06T04:29:19.820Z,90.46
2022-08-06T04:32:29.378Z,90.26
2022-08-06T04:36:06.876Z,91.46
2022-08-06T04:38:57.557Z,90.80
2022-08-06T04:42:05.612Z,90.26
2022-08-06T04:46:18.392Z,91.57
2022-08-06T04:48:34.318Z,91.09
2022-08-06T04:52:36.646Z,92.47
2022-08-06T04:55:05.285Z,92.63
2022-08-06T04:58:32.858Z,93.19
2022-08-06T05:01:40.500Z,92.75
2022-08-06T05:04:57.281Z,94.60
2022-08-06T05:08:01.468Z,92.67
2022-08-06T05:11:09.592Z,93.83
2022-08-06T05:14:20.409Z,93.56
2022-08-06T05:17:34.371Z,92.79
2022-08-06T05:20:40.761Z,92.64
2022-08-06T05:23:49.755Z,92.80
2022-08-06T05:26:56.552Z,92.75
2022-08-06T05:30:02.849Z,92.96
2022-08-06T05:33:05.466Z,93.70
2022-08-06T05:36:19.931Z,94.54
2022-08-06T05:39:56.631Z,95.75
2022-08-06T05:42:57.180Z,95.47
2022-08-06T05:46:05.676Z,96.94
2022-08-06T05:49:58.037Z,97.98
2022-08-06T05:52:58.234Z,97.48
2022-08-06T05:56:07.675Z,98.59
2022-08-06T05:59:37.631Z,98.21
2022-08-06T06:02:52.806Z,99.69
2022-08-06T06:06:07.496Z,99.59
2022-08-06T06:09:21.086Z,100.00
2022-08-06T06:12:44.394Z,100.00
2022-08-06T06:16:01.045Z,100.00
2022-08-06T06:19:15.892Z,100.00
2022-08-06T06:22:30.613Z,100.00
2022-08-06T06:26:00.383Z,100.00
2022-08-06T06:29:11.343Z,100.00
2022-08-06T06:32:31.015Z,100.00
2022-08-06T06:35:39.426Z,100.00
2022-08-06T06:39:07.500Z,100.00
2022-08-06T06:42:32.797Z,100.00
2022-08-06T06:46:06.310Z,100.00
2022-08-06T06:50:00.419Z,100.00
2022-08-06T06:52:48.202Z,100.00
2022-08-06T06:55:56.887Z,100.00
2022-08-06T06:59:16.335Z,100.00
2022-08-06T07:02:28.092Z,100.00
2022-08-06T07:06:05.803Z,100.00
2022-08-06T07:08:58.086Z,100.00
2022-08-06T07:12:04.018Z,100.00
2022-08-06T07:15:18.650Z,100.00
2022-08-06T07:18:25.893Z,100.00
2022-08-06T07:21:32.085Z,100.00
2022-08-06T07:24:39.745Z,100.00
2022-08-06T07:27:54.529Z,100.00
2022-08-06T07:31:04.527Z,100.00
2022-08-06T07:34:10.227Z,100.00
2022-08-06T07:37:15.243Z,100.00
2022-08-06T07:40:28.658Z,100.00
2022-08-06T07:43:54.192Z,100.00
2022-08-06T07:47:00.683Z,100.00
2022-08-06T07:50:03.485Z,100.00
2022-08-06T07:53:05.707Z,100.00
2022-08-06T07:56:10.123Z,100.00
2022-08-06T07:59:14.876Z,100.00
2022-08-06T08:02:18.408Z,100.00
2022-08-06T08:06:00.468Z,100.00
2022-08-06T08:09:07.739Z,100.00
2022-08-06T08:12:17.185Z,100.00
2022-08-06T08:15:43.186Z,100.00
2022-08-06T08:18:46.455Z,100.00
2022-08-06T08:21:53.975Z,100.00
2022-08-06T08:24:56.321Z,100.00
2022-08-06T08:27:59.729Z,100.00
2022-08-06T08:31:11.163Z,100.00
2022-08-06T08:34:27.235Z,100.00
2022-08-06T08:37:32.008Z,100.00
2022-08-06T08:40:35.957Z,100.00
2022-08-06T08:44:00.253Z,100.00
2022-08-06T08:47:12.448Z,100.00
2022-08-06T08:50:18.527Z,100.00
2022-08-06T08:53:45.318Z,100.00
2022-08-06T08:57:07.167Z,100.00
2022-08-06T09:00:15.676Z,100.00
2022-08-06T09:03:25.258Z,100.00
2022-08-06T09:06:29.009Z,100.00
2022-08-06T09:09:34.166Z,100.00
2022-08-06T09:12:44.992Z,99.31
2022-08-06T09:15:51.449Z,98.83
2022-08-06T09:18:54.557Z,99.97
2022-08-06T09:22:00.623Z,99.24
2022-08-06T09:25:07.993Z,98.47
2022-08-06T09:28:39.692Z,98.58
2022-08-06T09:31:44.693Z,98.80
2022-08-06T09:34:50.517Z,97.69
2022-08-06T09:38:06.226Z,98.39
2022-08-06T09:41:15.611Z,98.02
2022-08-06T09:44:37.459Z,97.80
2022-08-06T09:47:40.749Z,97.84
2022-08-06T09:50:47.172Z,97.31
2022-08-06T09:54:08.953Z,97.84
2022-08-06T09:57:22.940Z,97.36
2022-08-06T10:00:33.676Z,99.06
2022-08-06T10:04:03.745Z,97.76
2022-08-06T10:07:08.302Z,99.99
2022-08-06T10:10:11.104Z,99.21
2022-08-06T10:13:19.583Z,98.37
2022-08-06T10:16:29.146Z,99.39
2022-08-06T10:19:36.266Z,98.44
2022-08-06T10:22:59.670Z,97.58
2022-08-06T10:26:04.486Z,96.58
2022-08-06T10:29:07.929Z,94.87
2022-08-06T10:32:13.500Z,95.54
2022-08-06T10:35:25.477Z,95.59
2022-08-06T10:38:34.542Z,95.84
2022-08-06T10:42:01.691Z,97.14
2022-08-06T10:45:12.462Z,96.42
2022-08-06T10:48:58.840Z,97.03
2022-08-06T10:51:56.160Z,98.57
2022-08-06T10:55:02.061Z,97.94
2022-08-06T10:58:04.274Z,96.19
2022-08-06T11:01:14.012Z,95.84
2022-08-06T11:04:31.861Z,97.07
2022-08-06T11:08:14.324Z,96.41
2022-08-06T11:11:39.903Z,96.22
2022-08-06T11:14:43.196Z,96.59
2022-08-06T11:17:56.434Z,96.79
2022-08-06T11:21:02.418Z,95.08
2022-08-06T11:24:06.102Z,96.06
2022-08-06T11:27:53.694Z,95.43
2022-08-06T11:31:04.234Z,96.86
2022-08-06T11:34:10.607Z,97.79
2022-08-06T11:38:03.771Z,96.53
2022-08-06T11:40:54.137Z,96.65
2022-08-06T11:44:03.572Z,97.17
2022-08-06T11:47:08.372Z,98.29
2022-08-06T11:50:27.207Z,98.00
2022-08-06T11:53:46.515Z,97.68
2022-08-06T11:57:05.999Z,97.73
2022-08-06T12:00:16.259Z,99.19
2022-08-06T12:03:45.054Z,100.00
2022-08-06T12:06:50.762Z,98.26
2022-08-06T12:10:07.166Z,97.26
2022-08-06T12:13:52.986Z,98.40
2022-08-06T12:16:59.460Z,98.34
2022-08-06T12:20:07.359Z,96.87
2022-08-06T12:23:13.040Z,98.41
2022-08-06T12:26:16.922Z,97.62
2022-08-06T12:29:42.136Z,97.56
2022-08-06T12:32:54.126Z,98.56
2022-08-06T12:36:02.158Z,98.64
2022-08-06T12:39:13.776Z,98.33
2022-08-06T12:42:52.130Z,98.33
2022-08-06T12:46:07.122Z,97.63
2022-08-06T12:49:10.319Z,96.74
2022-08-06T12:52:30.249Z,92.61
2022-08-06T12:55:36.986Z,94.36
2022-08-06T12:58:43.581Z,93.38
2022-08-06T13:02:10.219Z,92.83
2022-08-06T13:05:10.226Z,93.95
2022-08-06T13:08:17.372Z,88.85
2022-08-06T13:11:41.537Z,90.26
2022-08-06T13:14:59.517Z,90.90
2022-08-06T13:18:13.224Z,88.37
2022-08-06T13:21:57.454Z,89.60
2022-08-06T13:25:48.588Z,84.69
2022-08-06T13:28:47.612Z,81.33
2022-08-06T13:32:11.290Z,80.95
2022-08-06T13:35:32.678Z,78.50
2022-08-06T13:38:41.815Z,77.36
2022-08-06T13:41:57.372Z,78.16
2022-08-06T13:45:56.469Z,73.84
2022-08-06T13:48:46.433Z,76.48
2022-08-06T13:51:53.956Z,74.22
2022-08-06T13:54:58.708Z,75.28
2022-08-06T13:58:02.038Z,75.06
2022-08-06T14:01:04.958Z,74.40
2022-08-06T14:04:10.045Z,73.51
2022-08-06T14:07:13.382Z,71.82
2022-08-06T14:10:16.703Z,73.20
2022-08-06T14:13:20.798Z,70.85
2022-08-06T14:16:24.334Z,69.10
2022-08-06T14:20:08.868Z,70.55
2022-08-06T14:22:50.283Z,64.96
2022-08-06T14:26:02.944Z,64.85
2022-08-06T14:30:25.763Z,63.38
2022-08-06T14:32:28.836Z,65.61
2022-08-06T14:35:38.009Z,63.40
2022-08-06T14:38:42.821Z,64.30
2022-08-06T14:42:04.733Z,57.78
2022-08-06T14:45:13.190Z,62.55
2022-08-06T14:48:17.742Z,62.18
2022-08-06T14:51:23.547Z,61.71
2022-08-06T14:54:31.985Z,61.65
2022-08-06T14:58:03.843Z,61.73
2022-08-06T15:00:59.731Z,59.24
2022-08-06T15:04:10.915Z,61.18
2022-08-06T15:07:26.910Z,60.18
2022-08-06T15:10:39.268Z,60.68
2022-08-06T15:13:41.996Z,61.14
2022-08-06T15:16:47.418Z,58.79
2022-08-06T15:19:51.208Z,60.93
2022-08-06T15:22:56.336Z,58.42
2022-08-06T15:26:47.756Z,61.23
2022-08-06T15:29:27.252Z,59.21
2022-08-06T15:32:37.462Z,56.76
2022-08-06T15:35:57.387Z,57.85
2022-08-06T15:39:01.465Z,58.80
2022-08-06T15:42:11.761Z,58.20
2022-08-06T15:45:50.207Z,54.91
2022-08-06T15:48:47.357Z,55.47
2022-08-06T15:52:00.910Z,56.34
2022-08-06T15:55:15.648Z,56.18
2022-08-06T15:58:28.938Z,56.17
2022-08-06T16:01:34.632Z,56.76
2022-08-06T16:04:55.851Z,58.29
2022-08-06T16:07:58.330Z,56.09
2022-08-06T16:11:00.891Z,60.45
2022-08-06T16:14:03.514Z,57.74
2022-08-06T16:17:09.633Z,56.37
2022-08-06T16:20:20.895Z,54.84
2022-08-06T16:23:55.629Z,57.82
2022-08-06T16:26:57.108Z,56.61
2022-08-06T16:30:00.825Z,57.84
2022-08-06T16:33:03.781Z,57.81
2022-08-06T16:36:06.644Z,55.27
2022-08-06T16:39:12.809Z,53.90
2022-08-06T16:42:15.952Z,57.79
2022-08-06T16:45:23.396Z,60.81
2022-08-06T16:48:27.939Z,62.23
2022-08-06T16:52:43.271Z,62.16
2022-08-06T16:54:53.467Z,61.94
2022-08-06T16:57:57.702Z,62.39
2022-08-06T17:02:15.463Z,62.39
2022-08-06T17:04:32.492Z,63.01
2022-08-06T17:07:41.869Z,63.63
2022-08-06T17:10:44.946Z,63.69
2022-08-06T17:14:01.304Z,63.37
2022-08-06T17:17:08.452Z,64.45
2022-08-06T17:23:37.457Z,65.04
2022-08-06T17:26:40.156Z,65.15
2022-08-06T17:29:48.773Z,65.14
2022-08-06T17:32:54.431Z,65.28
2022-08-06T17:36:28.704Z,65.51
2022-08-06T17:39:20.062Z,65.63
2022-08-06T17:45:38.269Z,66.75
2022-08-06T17:48:40.571Z,67.44
2022-08-06T17:51:42.901Z,69.01
2022-08-06T17:54:56.776Z,69.46
2022-08-06T17:58:33.411Z,68.61
2022-08-06T18:01:43.137Z,69.00
2022-08-06T18:04:44.365Z,68.57
2022-08-06T18:08:11.563Z,69.41
2022-08-06T18:11:08.990Z,69.28
2022-08-06T18:14:32.110Z,69.25
2022-08-06T18:17:59.355Z,70.05
2022-08-06T18:20:58.034Z,69.39
2022-08-06T18:24:25.117Z,71.07
2022-08-06T18:27:54.356Z,72.35
2022-08-06T18:30:50.338Z,71.70
2022-08-06T18:33:53.956Z,71.43
2022-08-06T18:37:19.602Z,71.77
2022-08-06T18:40:40.504Z,72.14
2022-08-06T18:43:49.019Z,73.32
2022-08-06T18:46:55.795Z,73.78
2022-08-06T18:50:01.097Z,73.19
2022-08-06T18:53:03.792Z,73.17
2022-08-06T18:56:07.760Z,73.00
2022-08-06T18:59:22.987Z,74.16
2022-08-06T19:02:27.693Z,74.95
2022-08-06T19:05:44.376Z,74.48
2022-08-06T19:08:47.507Z,75.19
2022-08-06T19:11:51.493Z,75.49
2022-08-06T19:14:54.916Z,76.39
2022-08-06T19:18:13.615Z,77.44
2022-08-06T19:21:19.342Z,77.09
2022-08-06T19:24:35.163Z,77.97
2022-08-06T19:28:31.332Z,78.64
2022-08-06T19:31:06.430Z,78.88
2022-08-06T19:34:14.689Z,79.61
2022-08-06T19:37:39.262Z,80.54
2022-08-06T19:40:46.760Z,82.29
2022-08-06T19:44:26.182Z,82.50
2022-08-06T19:47:15.300Z,82.29
2022-08-06T19:50:28.237Z,83.82
2022-08-06T19:53:32.699Z,82.91
2022-08-06T19:56:35.738Z,83.46
2022-08-06T20:00:51.947Z,84.42
2022-08-06T20:03:03.201Z,84.34
2022-08-06T20:06:20.215Z,84.48
2022-08-06T20:09:59.118Z,84.81
2022-08-06T20:12:52.425Z,85.19
2022-08-06T20:15:58.708Z,85.90
2022-08-06T20:19:08.966Z,85.97
2022-08-06T20:22:12.413Z,84.70
2022-08-06T20:25:19.693Z,85.61
2022-08-06T20:29:10.919Z,85.36
2022-08-06T20:31:55.058Z,85.05
2022-08-06T20:34:58.105Z,84.53
2022-08-06T20:38:03.201Z,83.87
2022-08-06T20:41:57.877Z,83.67
2022-08-06T20:44:32.120Z,83.21
2022-08-06T20:47:46.045Z,82.39
2022-08-06T20:50:51.302Z,82.10
2022-08-06T20:53:56.211Z,81.51
2022-08-06T20:57:04.255Z,81.38
2022-08-06T21:00:18.899Z,81.12
2022-08-06T21:05:11.578Z,79.95
2022-08-06T21:06:47.360Z,80.24
2022-08-06T21:09:56.108Z,79.74
2022-08-06T21:13:02.147Z,80.71
2022-08-06T21:16:13.779Z,81.46
2022-08-06T21:19:16.712Z,82.43
2022-08-06T21:22:25.802Z,81.70
2022-08-06T21:25:42.620Z,82.39
2022-08-06T21:28:52.012Z,82.37
2022-08-06T21:31:58.326Z,82.59
2022-08-06T21:35:01.986Z,82.26
2022-08-06T21:38:08.689Z,83.01
2022-08-06T21:41:38.570Z,82.43
2022-08-06T21:44:51.352Z,82.60
2022-08-06T21:47:54.144Z,82.93
2022-08-06T21:50:59.626Z,83.13
2022-08-06T21:54:04.708Z,83.33
2022-08-06T21:57:11.959Z,82.60
2022-08-06T22:00:40.104Z,84.02
2022-08-06T22:04:34.734Z,83.29
2022-08-06T22:07:06.060Z,83.56
2022-08-06T22:10:08.685Z,83.50
2022-08-06T22:13:16.584Z,83.01
2022-08-06T22:16:30.634Z,82.78
2022-08-06T22:19:39.375Z,82.58
2022-08-06T22:22:41.979Z,83.30
2022-08-06T22:25:45.367Z,83.30
2022-08-06T22:28:52.373Z,83.67
2022-08-06T22:32:00.316Z,82.96
2022-08-06T22:35:02.895Z,83.65
2022-08-06T22:38:19.518Z,83.45
2022-08-06T22:41:42.465Z,83.24
2022-08-06T22:45:48.765Z,83.54
2022-08-06T22:48:08.849Z,84.40
2022-08-06T22:51:19.006Z,84.35
2022-08-06T22:54:28.229Z,84.16
2022-08-06T22:57:37.198Z,83.89
2022-08-06T23:00:39.966Z,83.47
2022-08-06T23:03:42.377Z,83.46
2022-08-06T23:06:44.556Z,82.93
2022-08-06T23:09:50.961Z,82.59
2022-08-06T23:12:54.846Z,82.07
2022-08-06T23:15:58.040Z,81.71
2022-08-06T23:19:01.842Z,82.31
2022-08-06T23:22:04.996Z,81.58
2022-08-06T23:26:02.210Z,80.60
2022-08-06T23:28:30.942Z,80.41
2022-08-06T23:31:37.147Z,79.97
2022-08-06T23:34:40.329Z,80.35
2022-08-06T23:37:55.171Z,80.56
2022-08-06T23:41:16.196Z,79.91
2022-08-06T23:44:21.883Z,80.38
2022-08-06T23:47:55.051Z,80.33
2022-08-06T23:50:50.437Z,81.53
2022-08-06T23:54:05.805Z,80.88
2022-08-06T23:57:17.664Z,80.09
